首页
METAR-TAF:

METAR-TAF

机场 :

宮崎機場

宮崎, 日本

纬度: 31-52N, 经度: 131-27E, 海拔: 6米

当前天气观测

该预报发布于12分钟前的08:00 UTC
风速11节,风向西
温度 16°C
湿度 42%
气压 1018 hPa
能见度10公里或以上
少量云层高于1500英尺

METAR: RJFM 200800Z 28011KT 9999 FEW015 16/03 Q1018

时间: 17:12 (08:12 UTC)

预报

该预报发布于3小时和3分钟前的05:09 UTC
预报有效从20日的 06点(UTC)到 21日的 12点(UTC)
风速18节,风向西
能见度10公里或以上
少量云层高于3000英尺
短暂存在
从 20日的 06点(UTC)到 20日的 11点(UTC)
风速18节,风向西,有时为28节阵风
成为
从 20日的 13点(UTC)到 20日的 15点(UTC)
风速8节,风向西
成为
从 21日的 00点(UTC)到 21日的 03点(UTC)
风速5节,风向

TAF: RJFM 200509Z 2006/2112 27018KT 9999 FEW030 TEMPO 2006/2011 28018G28KT BECMG 2013/2015 28008KT BECMG 2100/2103 08005KT

超过4000个机场的气象观测和天气预报(METAR&TAF报告)。

可查询的气象台以黄色和红色小点在地图上表示。

将鼠标移到小点上方,可查看气象台名称。

然后点击查看天气观测和预报。

如需切换地图:点击带黑十字的绿色按钮放大地图;点击带横线的绿色按钮缩小地图;或者点击绿色箭头查看邻近地区的地图。


METAR-TAF: